Time;durP1;ratioP1;P1;durP2;ratioP2;P2;SDS_P1;SDS_P2;PMS_P1;PMS_P2;Temp;Humidity;BMP_temperature;BMP_pressure;BME280_temperature;BME280_humidity;BME280_pressure;Samples;Min_cycle;Max_cycle;Signal;HPM_P1;HPM_P2
2021/03/02 00:00:22;;;;;;;154.27;62.83;;;;;;;-1.56;69.86;98951.88;1857908;77;25897;-80
2021/03/02 00:02:52;;;;;;;155.43;58.63;;;;;;;-1.64;69.91;98951.53;1858073;77;25916;-81
2021/03/02 00:05:19;;;;;;;157.40;62.90;;;;;;;-1.69;69.95;98954.45;1858065;77;26039;-81
2021/03/02 00:07:47;;;;;;;139.15;57.95;;;;;;;-1.71;69.84;98951.08;1857856;77;25799;-81
2021/03/02 00:10:14;;;;;;;137.07;56.88;;;;;;;-1.73;69.91;98948.16;1857901;77;25715;-81
2021/03/02 00:12:42;;;;;;;140.88;56.73;;;;;;;-1.73;69.99;98946.83;1858094;77;26227;-80
2021/03/02 00:15:13;;;;;;;138.40;56.90;;;;;;;-1.76;69.98;98941.25;1858064;77;28456;-81
2021/03/02 00:17:52;;;;;;;133.87;56.18;;;;;;;-1.77;70.03;98946.16;1857923;77;25629;-81
2021/03/02 00:20:26;;;;;;;126.92;52.15;;;;;;;-1.79;70.00;98948.52;1858064;77;25756;-81
2021/03/02 00:23:06;;;;;;;119.22;52.00;;;;;;;-1.77;70.08;98946.63;1857812;77;25577;-81
2021/03/02 00:25:37;;;;;;;114.90;46.60;;;;;;;-1.76;70.06;98941.72;1857966;77;25712;-81
2021/03/02 00:28:08;;;;;;;125.97;51.90;;;;;;;-1.81;70.03;98939.34;1834141;77;28505;-81
2021/03/02 00:30:37;;;;;;;131.90;50.75;;;;;;;-1.88;69.88;98942.87;1857903;77;26051;-81
2021/03/02 00:33:07;;;;;;;121.72;50.23;;;;;;;-1.97;69.92;98942.13;1857916;77;25826;-81
2021/03/02 00:35:34;;;;;;;108.15;44.65;;;;;;;-1.97;70.06;98942.13;1855274;77;26524;-80
2021/03/02 00:38:02;;;;;;;114.50;47.70;;;;;;;-1.97;70.15;98938.16;1830048;77;25672;-81
2021/03/02 00:40:29;;;;;;;96.22;41.50;;;;;;;-1.96;70.07;98935.05;1816454;77;27477;-82
2021/03/02 00:42:57;;;;;;;98.25;41.25;;;;;;;-2.03;69.98;98939.00;1816348;77;25702;-81
2021/03/02 00:45:25;;;;;;;91.32;39.38;;;;;;;-2.13;69.86;98938.73;1847581;77;25732;-82
2021/03/02 00:47:56;;;;;;;89.00;39.70;;;;;;;-2.15;69.97;98942.41;1851650;77;26216;-81
2021/03/02 00:50:25;;;;;;;91.67;39.50;;;;;;;-2.20;69.92;98943.56;1853816;76;26296;-81
2021/03/02 00:52:53;;;;;;;94.20;41.37;;;;;;;-2.25;69.93;98939.48;1851667;77;27493;-82
2021/03/02 00:55:21;;;;;;;89.80;38.48;;;;;;;-2.29;69.95;98939.28;1847698;77;25706;-81
2021/03/02 00:57:49;;;;;;;92.88;41.42;;;;;;;-2.31;69.99;98946.02;1817406;77;25821;-81
2021/03/02 01:00:17;;;;;;;96.72;40.52;;;;;;;-2.31;70.04;98946.48;1851599;77;26402;-81
2021/03/02 01:02:45;;;;;;;91.82;41.18;;;;;;;-2.34;70.10;98947.98;1828913;77;26365;-81
2021/03/02 01:05:13;;;;;;;100.58;41.85;;;;;;;-2.38;70.17;98951.28;1851557;77;28410;-81
2021/03/02 01:07:40;;;;;;;93.62;41.73;;;;;;;-2.34;70.32;98954.60;1851452;77;25765;-81
2021/03/02 01:10:10;;;;;;;100.25;41.45;;;;;;;-2.26;70.32;98947.04;1851702;77;26263;-82
2021/03/02 01:12:38;;;;;;;94.07;39.35;;;;;;;-2.25;70.25;98953.56;1826770;77;25678;-81
2021/03/02 01:15:08;;;;;;;110.32;43.17;;;;;;;-2.26;70.24;98951.01;1851594;77;25645;-82
2021/03/02 01:17:36;;;;;;;113.47;45.05;;;;;;;-2.32;70.19;98948.28;1851616;77;27583;-81
2021/03/02 01:20:06;;;;;;;99.05;41.70;;;;;;;-2.38;70.19;98943.34;1835925;77;25849;-82
2021/03/02 01:22:34;;;;;;;89.47;38.88;;;;;;;-2.41;70.28;98944.85;1843793;77;25754;-82
2021/03/02 01:25:01;;;;;;;90.35;38.50;;;;;;;-2.40;70.33;98952.31;1851562;77;25819;-81
2021/03/02 01:27:28;;;;;;;93.90;38.58;;;;;;;-2.41;70.44;98941.35;1827020;77;25921;-81
2021/03/02 01:29:56;;;;;;;92.42;38.67;;;;;;;-2.39;70.52;98944.77;1827309;77;27466;-82
2021/03/02 01:32:23;;;;;;;87.22;39.67;;;;;;;-2.35;70.64;98941.00;1852886;77;25760;-82
2021/03/02 01:34:50;;;;;;;85.75;38.10;;;;;;;-2.31;70.66;98943.84;1828246;77;25662;-81
2021/03/02 01:37:18;;;;;;;97.65;40.45;;;;;;;-2.29;70.69;98940.61;1857833;77;25825;-82
2021/03/02 01:39:45;;;;;;;93.92;39.38;;;;;;;-2.27;70.73;98933.44;1857944;77;25717;-81
2021/03/02 01:42:12;;;;;;;95.95;41.13;;;;;;;-2.21;70.74;98943.66;1851590;77;27476;-81
2021/03/02 01:44:40;;;;;;;87.70;35.78;;;;;;;-2.22;70.61;98935.34;1847555;77;26396;-82
2021/03/02 01:47:07;;;;;;;87.60;38.65;;;;;;;-2.23;70.56;98933.63;1834102;77;25697;-82
2021/03/02 01:49:35;;;;;;;84.07;35.78;;;;;;;-2.26;70.56;98924.55;1845733;77;25573;-82
2021/03/02 01:52:03;;;;;;;92.22;39.33;;;;;;;-2.26;70.63;98927.20;1857908;77;25879;-82
2021/03/02 01:54:30;;;;;;;107.70;42.43;;;;;;;-2.21;70.65;98930.42;1857652;77;27450;-82
2021/03/02 01:56:58;;;;;;;101.47;42.67;;;;;;;-2.21;70.61;98930.42;1804936;77;26570;-82
2021/03/02 01:59:25;;;;;;;108.15;45.90;;;;;;;-2.19;70.51;98928.54;1836902;77;25703;-82
2021/03/02 02:01:54;;;;;;;103.30;46.68;;;;;;;-2.22;70.55;98927.40;1855621;77;25746;-81
2021/03/02 02:04:30;;;;;;;103.62;44.67;;;;;;;-2.22;70.63;98920.31;1839266;77;26216;-82
2021/03/02 02:07:21;;;;;;;94.92;43.17;;;;;;;-2.21;70.69;98925.13;1830573;77;27497;-82
2021/03/02 02:10:11;;;;;;;93.58;41.58;;;;;;;-2.20;70.65;98926.84;1854303;77;25678;-82
2021/03/02 02:12:55;;;;;;;88.60;40.50;;;;;;;-2.18;70.58;98922.31;1855256;77;25843;-82
2021/03/02 02:15:28;;;;;;;92.82;40.85;;;;;;;-2.26;70.44;98920.59;1852378;77;26340;-82
2021/03/02 02:18:06;;;;;;;88.52;37.93;;;;;;;-2.34;70.43;98918.42;1839971;77;25877;-82
2021/03/02 02:21:07;;;;;;;90.77;36.65;;;;;;;-2.38;70.50;98910.77;1846015;77;27491;-82
2021/03/02 02:24:06;;;;;;;85.12;36.60;;;;;;;-2.36;70.54;98911.05;1824102;77;26342;-82
2021/03/02 02:26:50;;;;;;;90.80;36.98;;;;;;;-2.37;70.50;98906.70;1824215;77;26583;-81
2021/03/02 02:29:22;;;;;;;98.25;40.08;;;;;;;-2.33;70.57;98904.27;1824055;77;25690;-82
2021/03/02 02:31:51;;;;;;;98.65;40.05;;;;;;;-2.40;70.61;98904.72;1839153;77;25839;-82
2021/03/02 02:34:20;;;;;;;95.03;38.17;;;;;;;-2.52;70.71;98904.14;1826737;77;27484;-82
2021/03/02 02:36:50;;;;;;;102.70;42.98;;;;;;;-2.63;70.86;98903.00;1806602;77;26117;-82
2021/03/02 02:39:19;;;;;;;90.00;38.08;;;;;;;-2.71;70.97;98902.63;1793620;79;25749;-82
2021/03/02 02:41:49;;;;;;;84.40;36.70;;;;;;;-2.76;71.01;98902.05;1764743;79;25722;-82
2021/03/02 02:44:18;;;;;;;77.12;33.83;;;;;;;-2.75;71.06;98907.70;1780268;78;25842;-82
2021/03/02 02:46:46;;;;;;;77.42;33.42;;;;;;;-2.81;71.09;98903.27;1795458;78;28565;-82
2021/03/02 02:49:16;;;;;;;78.28;33.95;;;;;;;-2.86;71.30;98906.18;1795481;79;25702;-82
2021/03/02 02:51:43;;;;;;;71.45;30.72;;;;;;;-2.83;71.43;98900.72;1783865;79;25726;-82
2021/03/02 02:54:13;;;;;;;86.00;35.63;;;;;;;-2.76;71.56;98904.69;1785769;79;26497;-82
2021/03/02 02:56:43;;;;;;;82.22;34.88;;;;;;;-2.66;71.50;98901.89;1785994;79;25770;-82
2021/03/02 02:59:25;;;;;;;80.00;34.33;;;;;;;-2.59;71.31;98900.56;1764012;79;28479;-82
2021/03/02 03:02:02;;;;;;;78.72;34.45;;;;;;;-2.55;71.18;98905.20;1763786;79;26114;-82
2021/03/02 03:05:05;;;;;;;93.78;37.42;;;;;;;-2.55;71.04;98906.05;1763996;79;25740;-82
2021/03/02 03:07:43;;;;;;;73.45;32.48;;;;;;;-2.54;70.96;98907.73;1764137;79;25808;-82
2021/03/02 03:10:12;;;;;;;75.20;34.43;;;;;;;-2.55;71.00;98904.73;1735650;81;25720;-82
2021/03/02 03:12:43;;;;;;;67.60;32.00;;;;;;;-2.51;71.00;98901.88;1750671;81;27623;-82
2021/03/02 03:15:13;;;;;;;70.08;31.82;;;;;;;-2.48;71.08;98894.62;1756360;81;25735;-82
2021/03/02 03:17:46;;;;;;;67.42;30.82;;;;;;;-2.43;71.03;98895.20;1749709;81;26283;-82
2021/03/02 03:20:14;;;;;;;75.03;32.70;;;;;;;-2.41;71.04;98896.40;1740642;79;25591;-81
2021/03/02 03:22:43;;;;;;;75.17;33.53;;;;;;;-2.41;71.05;98891.96;1763225;80;25766;-82
2021/03/02 03:25:12;;;;;;;72.72;32.70;;;;;;;-2.42;70.98;98893.41;1737728;81;27487;-82
2021/03/02 03:27:51;;;;;;;63.33;29.50;;;;;;;-2.48;70.92;98891.97;1746812;81;26058;-82
2021/03/02 03:30:21;;;;;;;63.45;28.98;;;;;;;-2.56;70.85;98891.13;1743893;81;25795;-82
2021/03/02 03:32:55;;;;;;;64.40;29.20;;;;;;;-2.61;70.83;98887.91;1732744;81;25907;-82
2021/03/02 03:35:24;;;;;;;69.53;28.98;;;;;;;-2.63;70.82;98887.14;1733763;80;25772;-81
2021/03/02 03:37:53;;;;;;;63.58;28.57;;;;;;;-2.67;70.75;98890.94;1755211;79;27560;-82
2021/03/02 03:40:21;;;;;;;68.37;30.20;;;;;;;-2.68;70.67;98888.38;1801406;79;25705;-82
2021/03/02 03:42:48;;;;;;;61.33;28.98;;;;;;;-2.73;70.62;98886.00;1813256;77;25724;-82
2021/03/02 03:45:16;;;;;;;69.90;30.92;;;;;;;-2.78;70.67;98892.06;1836966;77;25720;-82
2021/03/02 03:47:45;;;;;;;72.40;30.60;;;;;;;-2.82;70.75;98882.60;1809573;77;25819;-82
2021/03/02 03:50:14;;;;;;;80.62;33.15;;;;;;;-2.81;70.89;98885.63;1801566;77;27493;-82
2021/03/02 03:52:53;;;;;;;72.60;30.75;;;;;;;-2.76;70.98;98887.97;1825138;77;25710;-82
2021/03/02 03:55:25;;;;;;;66.95;28.50;;;;;;;-2.76;70.98;98891.47;1824921;77;25809;-82
2021/03/02 03:57:53;;;;;;;64.80;29.37;;;;;;;-2.80;70.78;98891.30;1842854;77;25582;-82
2021/03/02 04:00:21;;;;;;;69.40;29.25;;;;;;;-2.90;70.83;98895.44;1842715;77;25731;-81
2021/03/02 04:02:51;;;;;;;62.43;28.00;;;;;;;-2.94;70.85;98892.12;1818255;77;27522;-81
2021/03/02 04:05:20;;;;;;;64.07;29.15;;;;;;;-2.96;70.98;98889.17;1809511;77;25839;-81
2021/03/02 04:07:48;;;;;;;69.92;30.50;;;;;;;-2.92;71.07;98888.91;1809612;77;25954;-81
2021/03/02 04:10:16;;;;;;;79.55;31.70;;;;;;;-2.93;70.83;98883.72;1819507;77;25830;-81
2021/03/02 04:12:47;;;;;;;79.60;32.40;;;;;;;-3.00;70.80;98887.65;1822141;77;26461;-81
2021/03/02 04:15:18;;;;;;;92.53;35.08;;;;;;;-3.01;70.85;98888.59;1817758;77;27491;-81
2021/03/02 04:17:54;;;;;;;82.82;34.50;;;;;;;-3.01;70.85;98891.23;1842698;77;25730;-82
2021/03/02 04:20:22;;;;;;;79.92;32.98;;;;;;;-3.01;70.80;98891.23;1842770;77;26203;-82
2021/03/02 04:22:49;;;;;;;75.80;30.57;;;;;;;-3.06;70.73;98891.99;1823688;77;26294;-81
2021/03/02 04:25:16;;;;;;;62.40;28.90;;;;;;;-3.07;70.72;98881.04;1838846;77;25684;-81
2021/03/02 04:27:44;;;;;;;69.35;29.55;;;;;;;-3.10;70.75;98881.22;1842825;77;27473;-81
2021/03/02 04:30:12;;;;;;;63.17;26.77;;;;;;;-3.15;70.82;98883.30;1841447;77;25804;-81
2021/03/02 04:32:39;;;;;;;62.98;27.02;;;;;;;-3.14;70.78;98888.95;1836386;77;25739;-82
2021/03/02 04:35:08;;;;;;;64.37;26.80;;;;;;;-3.13;70.84;98894.13;1819309;77;26550;-82
2021/03/02 04:37:38;;;;;;;63.50;26.90;;;;;;;-3.13;70.74;98894.59;1823288;77;25748;-81
2021/03/02 04:40:07;;;;;;;64.32;25.48;;;;;;;-3.17;70.85;98894.41;1802220;77;27488;-82
2021/03/02 04:42:35;;;;;;;66.72;27.62;;;;;;;-3.09;71.05;98880.27;1819481;77;25789;-81
2021/03/02 04:45:05;;;;;;;52.00;26.60;;;;;;;-3.07;70.88;98885.86;1822191;77;25801;-82
2021/03/02 04:47:34;;;;;;;68.70;27.22;;;;;;;-3.11;70.91;98882.16;1841011;77;25792;-82
2021/03/02 04:50:01;;;;;;;69.10;28.25;;;;;;;-3.14;70.92;98892.92;1840540;77;25855;-82
2021/03/02 04:52:28;;;;;;;67.75;28.60;;;;;;;-3.11;70.90;98882.16;1820135;77;27447;-81
2021/03/02 04:54:56;;;;;;;89.42;32.17;;;;;;;-3.16;70.78;98881.13;1832785;77;25711;-82
2021/03/02 04:57:24;;;;;;;82.60;32.17;;;;;;;-3.23;70.88;98881.55;1829572;77;25729;-81
2021/03/02 04:59:52;;;;;;;89.77;35.43;;;;;;;-3.28;70.92;98885.80;1842656;77;25732;-82
2021/03/02 05:02:19;;;;;;;77.12;30.20;;;;;;;-3.34;70.99;98883.03;1824975;77;25715;-81
2021/03/02 05:04:47;;;;;;;83.72;30.97;;;;;;;-3.28;71.10;98888.44;1809520;77;27486;-82
2021/03/02 05:07:14;;;;;;;154.42;47.43;;;;;;;-3.26;71.03;98888.70;1809601;77;25663;-82
2021/03/02 05:09:41;;;;;;;192.53;55.05;;;;;;;-3.24;71.05;98893.05;1835105;77;25794;-82
2021/03/02 05:12:10;;;;;;;162.92;49.53;;;;;;;-3.24;71.09;98893.91;1821589;77;25781;-81
2021/03/02 05:14:37;;;;;;;142.87;46.58;;;;;;;-3.18;71.06;98894.03;1825890;77;25847;-81
2021/03/02 05:17:05;;;;;;;146.02;48.30;;;;;;;-3.21;70.90;98892.88;1842690;77;27546;-81
2021/03/02 05:19:32;;;;;;;160.20;48.42;;;;;;;-3.24;70.94;98896.55;1842720;77;25852;-82
2021/03/02 05:22:00;;;;;;;179.40;53.30;;;;;;;-3.23;70.95;98896.08;1835000;77;25770;-81
2021/03/02 05:24:27;;;;;;;174.82;54.35;;;;;;;-3.16;71.01;98904.04;1827582;77;25520;-82
2021/03/02 05:26:54;;;;;;;153.97;50.03;;;;;;;-3.10;71.09;98903.20;1842665;77;25666;-81
2021/03/02 05:29:22;;;;;;;140.18;46.25;;;;;;;-3.08;70.94;98897.83;1827252;77;27482;-82
2021/03/02 05:31:49;;;;;;;133.20;49.98;;;;;;;-3.09;70.90;98898.77;1835176;77;25748;-81
2021/03/02 05:34:17;;;;;;;127.12;44.40;;;;;;;-3.10;70.85;98908.95;1842808;77;25709;-82
2021/03/02 05:36:44;;;;;;;114.50;42.10;;;;;;;-3.17;70.92;98907.62;1822505;77;25732;-82
2021/03/02 05:39:12;;;;;;;122.10;42.03;;;;;;;-3.26;70.96;98905.05;1829153;77;25800;-82
2021/03/02 05:41:43;;;;;;;110.15;38.38;;;;;;;-3.22;71.02;98908.34;1852392;77;28365;-81
2021/03/02 05:44:14;;;;;;;99.05;36.28;;;;;;;-3.25;71.05;98906.73;1819588;77;26069;-82
2021/03/02 05:46:43;;;;;;;88.33;33.20;;;;;;;-3.19;71.12;98910.34;1818837;77;25795;-81
2021/03/02 05:49:12;;;;;;;89.25;36.95;;;;;;;-3.12;71.05;98906.86;1843167;77;25853;-82
2021/03/02 05:51:42;;;;;;;83.97;35.83;;;;;;;-3.09;71.02;98909.33;1852183;77;25695;-81
2021/03/02 05:54:11;;;;;;;97.50;36.70;;;;;;;-3.09;71.08;98909.33;1829577;77;28413;-81
2021/03/02 05:56:40;;;;;;;100.18;36.55;;;;;;;-3.08;71.03;98903.11;1818551;77;25761;-81
2021/03/02 05:59:09;;;;;;;131.07;51.80;;;;;;;-3.07;71.03;98906.14;1839523;77;25775;-81
2021/03/02 06:01:38;;;;;;;129.80;49.27;;;;;;;-3.05;71.08;98904.26;1820499;77;25713;-81
2021/03/02 06:04:06;;;;;;;179.63;65.15;;;;;;;-2.99;71.19;98907.84;1818743;77;25863;-81
2021/03/02 06:06:34;;;;;;;242.70;83.80;;;;;;;-2.94;71.16;98904.00;1818650;77;27492;-81
2021/03/02 06:09:01;;;;;;;182.02;65.85;;;;;;;-2.89;71.29;98906.36;1818689;77;25670;-81
2021/03/02 06:11:35;;;;;;;152.85;60.60;;;;;;;-2.91;71.21;98907.80;1818621;77;25797;-81
2021/03/02 06:14:23;;;;;;;129.55;47.40;;;;;;;-3.03;71.26;98908.98;1818694;77;25595;-81
2021/03/02 06:16:52;;;;;;;119.17;46.13;;;;;;;-3.04;71.47;98909.92;1842137;77;25745;-80
2021/03/02 06:19:45;;;;;;;103.38;41.23;;;;;;;-3.03;71.61;98901.06;1818430;77;28343;-80
2021/03/02 06:22:33;;;;;;;;;;;;;;;-2.96;71.71;98905.03;1854915;77;25894;-79
2021/03/02 06:25:03;;;;;;;98.87;38.63;;;;;;;-2.89;71.89;98903.71;1826278;77;25380;-80
2021/03/02 06:27:34;;;;;;;102.85;39.33;;;;;;;-2.79;71.92;98910.17;1821853;76;25770;-80
2021/03/02 06:30:16;;;;;;;107.87;42.67;;;;;;;-2.71;71.91;98903.95;1851757;77;25791;-81
2021/03/02 06:32:51;;;;;;;89.00;37.20;;;;;;;-2.59;71.98;98901.89;1833082;77;27504;-80
2021/03/02 06:35:35;;;;;;;132.47;51.20;;;;;;;-2.44;72.00;98905.39;1852007;77;25796;-80
2021/03/02 06:38:03;;;;;;;117.57;48.28;;;;;;;-2.38;71.87;98902.83;1851405;77;25759;-81
2021/03/02 06:40:48;;;;;;;110.42;45.05;;;;;;;-2.35;71.75;98903.97;1851489;77;25796;-79
2021/03/02 06:43:35;;;;;;;102.27;43.28;;;;;;;-2.29;71.93;98899.61;1834104;77;25812;-80
2021/03/02 06:46:09;;;;;;;80.15;34.92;;;;;;;-2.14;72.16;98905.28;1818124;77;27498;-80
2021/03/02 06:48:56;;;;;;;69.62;31.95;;;;;;;-2.03;72.28;98901.95;1818037;77;25683;-81
2021/03/02 06:51:38;;;;;;;88.00;37.08;;;;;;;-1.89;72.28;98900.14;1841654;77;25829;-80
2021/03/02 06:54:16;;;;;;;95.60;43.00;;;;;;;-1.83;72.26;98897.13;1839807;77;25754;-80
2021/03/02 06:56:45;;;;;;;102.60;45.23;;;;;;;-1.71;72.29;98902.58;1851603;77;25859;-80
2021/03/02 06:59:23;;;;;;;100.33;46.13;;;;;;;-1.65;72.30;98902.17;1829865;77;27380;-80
2021/03/02 07:01:51;;;;;;;90.35;40.12;;;;;;;-1.58;72.28;98899.52;1829309;77;25767;-80
2021/03/02 07:04:21;;;;;;;80.85;38.98;;;;;;;-1.50;72.39;98895.89;1829641;77;25771;-80
2021/03/02 07:06:54;;;;;;;81.90;40.12;;;;;;;-1.54;72.37;98886.43;1827408;77;25822;-80
2021/03/02 07:09:20;;;;;;;77.62;32.65;;;;;;;-1.53;72.53;98888.13;1851738;77;25742;-79
2021/03/02 07:11:49;;;;;;;66.55;30.48;;;;;;;-1.50;72.67;98891.44;1843685;77;27479;-80
2021/03/02 07:14:17;;;;;;;60.10;29.80;;;;;;;-1.49;72.79;98897.59;1836644;77;25782;-80
2021/03/02 07:16:47;;;;;;;76.22;34.85;;;;;;;-1.50;72.93;98883.50;1851516;77;25846;-80
2021/03/02 07:19:21;;;;;;;81.80;37.60;;;;;;;-1.38;73.08;98877.87;1834944;77;25658;-80
2021/03/02 07:21:54;;;;;;;84.85;38.50;;;;;;;-1.23;73.16;98884.80;1823195;77;25878;-80
2021/03/02 07:24:31;;;;;;;87.45;39.30;;;;;;;-1.10;73.11;98877.74;1834586;77;28421;-80
2021/03/02 07:27:02;;;;;;;82.27;38.60;;;;;;;-0.94;73.12;98880.19;1847779;77;25763;-80
2021/03/02 07:29:30;;;;;;;67.10;30.40;;;;;;;-0.79;73.18;98879.16;1832158;77;25748;-81
2021/03/02 07:31:59;;;;;;;65.05;28.90;;;;;;;-0.64;73.28;98873.28;1803713;78;25649;-80
2021/03/02 07:34:27;;;;;;;57.65;28.02;;;;;;;-0.48;73.23;98869.06;1818137;77;26232;-79
2021/03/02 07:36:54;;;;;;;68.97;30.62;;;;;;;-0.37;73.12;98867.88;1815789;77;27700;-80
2021/03/02 07:39:24;;;;;;;65.45;29.77;;;;;;;-0.24;73.10;98866.02;1783509;79;26155;-80
2021/03/02 07:41:52;;;;;;;70.45;31.82;;;;;;;-0.11;73.03;98864.67;1766293;79;25808;-80
2021/03/02 07:44:21;;;;;;;64.35;30.05;;;;;;;0.06;73.02;98865.66;1783643;79;25835;-81
2021/03/02 07:46:56;;;;;;;68.35;32.55;;;;;;;0.21;72.91;98861.91;1773536;79;25932;-80
2021/03/02 07:49:29;;;;;;;64.58;30.12;;;;;;;0.46;72.97;98859.63;1784059;78;27497;-81
2021/03/02 07:52:09;;;;;;;59.98;28.57;;;;;;;0.72;72.83;98853.20;1784065;78;25733;-82
2021/03/02 07:54:37;;;;;;;54.03;27.22;;;;;;;0.95;72.68;98852.84;1795757;79;25728;-82
2021/03/02 07:57:22;;;;;;;54.30;25.32;;;;;;;1.24;72.48;98848.42;1775657;79;26542;-84
2021/03/02 08:00:19;;;;;;;50.40;24.87;;;;;;;1.46;72.21;98849.78;1764104;79;25803;-83
2021/03/02 08:03:11;;;;;;;53.35;25.20;;;;;;;1.75;72.03;98852.34;1779121;79;28454;-84
2021/03/02 08:05:39;;;;;;;47.55;24.67;;;;;;;2.14;71.99;98841.67;1795039;78;26082;-82
2021/03/02 08:08:29;;;;;;;46.33;23.77;;;;;;;2.55;71.92;98844.09;1795032;79;25801;-84
2021/03/02 08:11:03;;;;;;;39.67;22.10;;;;;;;2.96;71.65;98841.16;1742831;81;25736;-83
2021/03/02 08:13:42;;;;;;;37.50;18.77;;;;;;;3.43;71.23;98843.80;1742377;81;25755;-83
2021/03/02 08:16:13;;;;;;;31.55;16.48;;;;;;;3.85;70.67;98840.58;1732849;81;28503;-83
2021/03/02 08:18:42;;;;;;;33.60;17.80;;;;;;;4.26;70.07;98839.57;1733076;79;25845;-83
2021/03/02 08:21:18;;;;;;;40.25;20.90;;;;;;;4.64;69.56;98836.97;1763218;81;26288;-82
2021/03/02 08:23:57;;;;;;;43.02;22.70;;;;;;;5.00;69.17;98834.59;1741634;81;26452;-82
2021/03/02 08:26:35;;;;;;;42.93;23.35;;;;;;;5.36;68.75;98824.96;1732448;82;25731;-82
2021/03/02 08:29:07;;;;;;;41.92;22.85;;;;;;;5.70;68.41;98832.83;1742307;79;28567;-82
2021/03/02 08:31:36;;;;;;;40.90;23.60;;;;;;;6.07;68.08;98838.72;1753844;81;25754;-81
2021/03/02 08:34:06;;;;;;;38.42;22.07;;;;;;;6.31;67.50;98827.45;1759611;79;25738;-81
2021/03/02 08:36:35;;;;;;;45.40;22.77;;;;;;;6.56;67.37;98822.70;1751500;81;25803;-81
2021/03/02 08:39:09;;;;;;;43.90;23.18;;;;;;;6.80;67.00;98821.60;1756383;79;25843;-81
2021/03/02 08:41:40;;;;;;;40.52;22.70;;;;;;;7.02;66.59;98826.16;1758544;80;27495;-81
2021/03/02 08:44:18;;;;;;;33.08;20.15;;;;;;;7.21;66.19;98829.53;1773502;79;26285;-81
2021/03/02 08:46:52;;;;;;;34.05;17.55;;;;;;;7.40;65.91;98819.58;1741693;81;25744;-81
2021/03/02 08:49:20;;;;;;;29.63;18.00;;;;;;;7.64;65.46;98821.59;1775328;78;25770;-81
2021/03/02 08:51:48;;;;;;;30.50;18.50;;;;;;;7.85;64.99;98820.70;1783196;78;25812;-81
2021/03/02 08:54:15;;;;;;;29.67;17.77;;;;;;;8.11;64.67;98823.36;1764311;78;27487;-81
2021/03/02 08:56:43;;;;;;;27.25;17.02;;;;;;;8.35;64.26;98821.30;1772830;79;25936;-81
2021/03/02 08:59:14;;;;;;;28.70;17.32;;;;;;;8.62;63.63;98822.40;1773824;78;25762;-81
2021/03/02 09:01:43;;;;;;;29.05;18.23;;;;;;;8.78;63.12;98817.05;1764259;79;26455;-82
2021/03/02 09:04:19;;;;;;;31.77;18.30;;;;;;;9.05;62.87;98812.37;1764269;78;25311;-82
2021/03/02 09:06:49;;;;;;;29.37;18.05;;;;;;;9.32;62.03;98809.33;1764324;78;26799;-82
2021/03/02 09:09:22;;;;;;;34.95;20.57;;;;;;;9.49;61.44;98811.01;1783199;78;26066;-82
2021/03/02 09:11:56;;;;;;;31.73;19.55;;;;;;;9.60;61.29;98805.77;1773707;78;25736;-82
2021/03/02 09:14:33;;;;;;;33.25;18.85;;;;;;;9.85;60.78;98807.91;1776864;78;25772;-82
2021/03/02 09:17:02;;;;;;;31.42;18.30;;;;;;;9.93;60.66;98806.52;1764144;78;26365;-81
2021/03/02 09:19:42;;;;;;;27.02;18.35;;;;;;;10.14;60.38;98800.06;1764294;79;27470;-82
2021/03/02 09:22:20;;;;;;;34.15;18.70;;;;;;;10.39;60.22;98803.50;1764209;79;25785;-82
2021/03/02 09:27:36;;;;;;;38.33;21.50;;;;;;;10.59;58.30;98801.22;1830531;76;25612;-82
2021/03/02 09:30:08;;;;;;;36.75;22.05;;;;;;;10.65;58.52;98801.84;1779243;78;25854;-82
2021/03/02 09:32:36;;;;;;;34.30;21.02;;;;;;;10.89;58.00;98799.49;1786572;78;27438;-82
2021/03/02 09:35:08;;;;;;;32.08;19.57;;;;;;;11.11;58.18;98804.05;1819802;78;25688;-82
2021/03/02 09:37:40;;;;;;;37.63;19.52;;;;;;;11.35;57.78;98796.28;1806743;78;25743;-82
2021/03/02 09:40:16;;;;;;;28.83;18.05;;;;;;;11.64;57.39;98799.55;1791252;78;25845;-82
2021/03/02 09:42:54;;;;;;;28.85;18.10;;;;;;;11.98;56.97;98801.74;1801285;78;25824;-82
2021/03/02 09:45:22;;;;;;;25.85;17.30;;;;;;;12.24;56.80;98789.93;1797511;78;28448;-82
2021/03/02 09:48:00;;;;;;;31.23;19.30;;;;;;;12.55;56.37;98792.42;1801078;78;26095;-83
2021/03/02 09:50:39;;;;;;;31.55;18.17;;;;;;;12.91;55.81;98793.77;1810949;78;25761;-83
2021/03/02 09:53:17;;;;;;;25.82;15.25;;;;;;;13.12;54.63;98791.05;1797108;78;25825;-83
2021/03/02 09:55:48;;;;;;;25.43;15.88;;;;;;;13.32;54.95;98788.54;1803754;78;25670;-83
2021/03/02 09:58:18;;;;;;;63.60;16.40;;;;;;;13.70;54.11;98783.63;1808431;78;27476;-84
2021/03/02 10:00:54;;;;;;;24.05;14.25;;;;;;;13.98;53.51;98781.75;1793814;78;26106;-84
2021/03/02 10:03:27;;;;;;;21.75;14.28;;;;;;;14.16;52.11;98779.00;1813989;78;25687;-83
2021/03/02 10:06:00;;;;;;;19.05;12.60;;;;;;;14.26;52.46;98782.19;1803735;78;25727;-85
2021/03/02 10:08:42;;;;;;;17.30;11.33;;;;;;;14.59;51.11;98785.10;1784532;78;25732;-86
2021/03/02 10:11:18;;;;;;;15.40;10.68;;;;;;;14.69;50.99;98787.75;1814653;78;28549;-84
2021/03/02 10:13:56;;;;;;;15.83;10.85;;;;;;;15.10;50.22;98788.98;1814094;77;25723;-84
2021/03/02 10:16:35;;;;;;;16.17;9.35;;;;;;;15.45;49.27;98793.75;1784817;78;25694;-84
2021/03/02 10:19:21;;;;;;;14.78;10.18;;;;;;;15.60;48.83;98792.71;1798270;78;25703;-83
2021/03/02 10:21:56;;;;;;;13.00;9.00;;;;;;;15.96;48.33;98790.89;1805215;78;25796;-82
2021/03/02 10:27:17;;;;;;;12.68;8.58;;;;;;;16.40;45.74;98783.36;1873056;76;25687;-83
2021/03/02 10:29:47;;;;;;;11.60;8.03;;;;;;;16.49;45.64;98779.33;1834015;76;25725;-83
2021/03/02 10:32:15;;;;;;;13.10;8.68;;;;;;;16.60;45.04;98777.30;1811082;77;27402;-83
2021/03/02 10:34:44;;;;;;;12.68;8.55;;;;;;;16.81;44.57;98771.55;1818783;77;26332;-82
2021/03/02 10:37:14;;;;;;;14.55;9.43;;;;;;;16.95;44.61;98767.38;1818866;77;25783;-83
2021/03/02 10:39:41;;;;;;;13.75;8.85;;;;;;;17.07;43.96;98768.36;1826085;77;25861;-81
2021/03/02 10:42:09;;;;;;;10.15;7.37;;;;;;;17.12;43.67;98764.45;1852435;77;26467;-83
2021/03/02 10:44:38;;;;;;;11.73;7.15;;;;;;;17.38;42.66;98754.71;1833851;77;27466;-82
2021/03/02 10:47:06;;;;;;;11.83;7.37;;;;;;;17.60;42.13;98755.15;1814902;77;26109;-83
2021/03/02 10:49:33;;;;;;;10.13;7.30;;;;;;;17.63;41.11;98752.81;1800439;77;25585;-82
2021/03/02 10:52:01;;;;;;;11.55;7.37;;;;;;;17.49;40.73;98742.23;1835436;77;25733;-82
2021/03/02 10:54:29;;;;;;;11.38;7.53;;;;;;;17.62;40.52;98748.41;1852300;77;25768;-82
2021/03/02 10:56:57;;;;;;;12.05;8.43;;;;;;;17.47;39.51;98738.36;1838214;77;27483;-82
2021/03/02 10:59:24;;;;;;;11.85;7.90;;;;;;;17.35;40.39;98737.41;1842256;77;25696;-81
2021/03/02 11:01:52;;;;;;;12.80;7.87;;;;;;;17.57;40.48;98733.22;1836630;77;25722;-82
2021/03/02 11:04:19;;;;;;;10.60;7.17;;;;;;;17.97;40.11;98730.97;1821010;77;25677;-82
2021/03/02 11:06:47;;;;;;;10.78;6.97;;;;;;;18.25;39.44;98726.32;1824218;77;25741;-82
2021/03/02 11:09:14;;;;;;;13.32;7.85;;;;;;;18.49;39.26;98718.25;1825200;77;27482;-82
2021/03/02 11:11:42;;;;;;;9.90;6.85;;;;;;;18.56;38.69;98717.64;1818790;77;25709;-82
2021/03/02 11:14:10;;;;;;;12.25;6.78;;;;;;;18.76;37.94;98710.02;1819350;77;25789;-82
2021/03/02 11:16:37;;;;;;;11.78;7.80;;;;;;;18.73;37.69;98703.64;1845186;77;25821;-82
2021/03/02 11:19:05;;;;;;;9.15;6.85;;;;;;;18.89;37.62;98702.99;1845194;77;25856;-82
2021/03/02 11:21:32;;;;;;;12.47;7.03;;;;;;;19.16;37.28;98698.48;1819366;77;27519;-82
2021/03/02 11:23:59;;;;;;;8.65;6.92;;;;;;;19.15;36.19;98695.45;1818640;77;25741;-82
2021/03/02 11:26:27;;;;;;;11.80;7.90;;;;;;;19.22;37.01;98689.31;1813958;77;25761;-82
2021/03/02 11:28:54;;;;;;;11.10;7.45;;;;;;;19.59;36.39;98688.08;1799088;77;25313;-82
2021/03/02 11:31:22;;;;;;;11.35;7.67;;;;;;;19.76;35.85;98695.05;1790412;77;25884;-82
2021/03/02 11:33:49;;;;;;;10.20;7.30;;;;;;;19.92;35.47;98691.59;1800926;77;27529;-82
2021/03/02 11:36:18;;;;;;;13.30;7.80;;;;;;;20.03;35.51;98685.79;1788479;77;25714;-83
2021/03/02 11:38:46;;;;;;;10.98;8.10;;;;;;;20.28;34.71;98693.19;1801484;77;25835;-82
2021/03/02 11:41:13;;;;;;;11.08;7.33;;;;;;;20.20;34.31;98686.69;1802185;77;25746;-82